Time;durP1;ratioP1;P1;durP2;ratioP2;P2;SDS_P1;SDS_P2;PMS_P1;PMS_P2;Temp;Humidity;BMP_temperature;BMP_pressure;BME280_temperature;BME280_humidity;BME280_pressure;Samples;Min_cycle;Max_cycle;Signal;HPM_P1;HPM_P2
2022/05/24 00:00:09;;;;;;;1.10;1.00;;;17.70;83.80;;;;;;5107309;28;20052;-64
2022/05/24 00:02:35;;;;;;;1.88;1.13;;;17.70;83.90;;;;;;5084682;28;20035;-68
2022/05/24 00:05:02;;;;;;;1.05;0.95;;;17.70;83.70;;;;;;5101853;28;20046;-66
2022/05/24 00:07:30;;;;;;;0.60;0.60;;;17.70;83.50;;;;;;5102282;28;20023;-68
2022/05/24 00:09:57;;;;;;;3.95;1.13;;;17.70;83.50;;;;;;5104833;28;20030;-67
2022/05/24 00:12:23;;;;;;;4.15;1.10;;;17.70;83.70;;;;;;5102021;28;20515;-68
2022/05/24 00:15:31;;;;;;;4.75;1.15;;;17.70;83.70;;;;;;5098805;28;20091;-67
2022/05/24 00:17:39;;;;;;;3.60;1.10;;;17.70;83.80;;;;;;5095533;28;20390;-65
2022/05/24 00:20:06;;;;;;;2.17;1.05;;;17.70;83.80;;;;;;5096499;28;20085;-65
2022/05/24 00:22:33;;;;;;;4.35;0.88;;;17.70;83.80;;;;;;5096734;28;20027;-68
2022/05/24 00:25:01;;;;;;;2.67;1.30;;;17.70;83.80;;;;;;5105083;28;20020;-68
2022/05/24 00:27:31;;;;;;;2.67;1.10;;;17.70;83.80;;;;;;5096469;28;20024;-66
2022/05/24 00:29:57;;;;;;;1.85;0.93;;;17.70;83.70;;;;;;5102787;28;20028;-66
2022/05/24 00:32:24;;;;;;;1.58;1.00;;;17.70;83.60;;;;;;5100836;28;20043;-66
2022/05/24 00:34:51;;;;;;;5.38;1.05;;;17.70;83.50;;;;;;5102772;28;20110;-66
2022/05/24 00:37:23;;;;;;;2.75;1.00;;;17.70;83.50;;;;;;5098609;28;20016;-65
2022/05/24 00:39:49;;;;;;;2.10;0.85;;;17.70;83.50;;;;;;5104490;28;20727;-66
2022/05/24 00:42:22;;;;;;;3.22;1.10;;;17.70;83.50;;;;;;5085580;28;20491;-67
2022/05/24 00:45:15;;;;;;;7.90;1.20;;;17.70;83.50;;;;;;5102653;28;20089;-67
2022/05/24 00:48:01;;;;;;;1.58;1.48;;;17.70;83.50;;;;;;5102705;28;20066;-65
2022/05/24 00:50:34;;;;;;;2.25;1.13;;;17.70;83.50;;;;;;5100852;28;21185;-65
2022/05/24 00:53:07;;;;;;;2.58;1.10;;;17.70;83.50;;;;;;5100720;28;20036;-65
2022/05/24 00:55:51;;;;;;;2.58;1.30;;;17.70;83.40;;;;;;5101805;28;20015;-65
2022/05/24 00:58:54;;;;;;;2.58;1.77;;;17.70;83.40;;;;;;5099958;28;20024;-67
2022/05/24 01:01:25;;;;;;;4.53;1.73;;;17.70;83.50;;;;;;5098132;28;20020;-65
2022/05/24 01:03:52;;;;;;;2.13;1.73;;;17.70;83.50;;;;;;5102191;28;20093;-66
2022/05/24 01:06:18;;;;;;;6.28;2.70;;;17.60;83.40;;;;;;5103613;28;20026;-65
2022/05/24 01:08:46;;;;;;;4.03;2.25;;;17.70;83.40;;;;;;5095671;28;20023;-65
2022/05/24 01:11:14;;;;;;;2.53;2.33;;;17.70;83.40;;;;;;5100399;28;20028;-65
2022/05/24 01:13:42;;;;;;;4.60;3.88;;;17.70;83.30;;;;;;5079835;28;20030;-65
2022/05/24 01:16:09;;;;;;;4.28;2.63;;;17.70;83.30;;;;;;5084192;28;20148;-65
2022/05/24 01:18:36;;;;;;;3.42;2.83;;;17.70;83.30;;;;;;5100716;28;20144;-65
2022/05/24 01:21:05;;;;;;;5.25;3.10;;;17.70;83.30;;;;;;5101696;28;20058;-65
2022/05/24 01:23:49;;;;;;;3.45;2.60;;;17.70;83.30;;;;;;5101150;28;20102;-65
2022/05/24 01:26:22;;;;;;;4.85;1.90;;;17.70;83.40;;;;;;5099264;28;20016;-66
2022/05/24 01:28:58;;;;;;;6.38;2.08;;;17.70;83.50;;;;;;5101928;28;20491;-65
2022/05/24 01:36:09;;;;;;;5.28;1.90;;;17.70;83.50;;;;;;5102589;28;20074;-65
2022/05/24 01:36:59;;;;;;;;;;;17.70;83.60;;;;;;5106205;28;20039;-66
2022/05/24 01:39:27;;;;;;;4.10;1.48;;;17.70;83.70;;;;;;5107681;28;19914;-65
2022/05/24 01:41:53;;;;;;;1.73;1.20;;;17.70;83.80;;;;;;5100858;28;20482;-66
2022/05/24 01:44:35;;;;;;;6.10;1.30;;;17.70;83.80;;;;;;5103571;28;20075;-66
2022/05/24 01:47:02;;;;;;;3.40;1.50;;;17.70;83.90;;;;;;5104836;28;20031;-65
2022/05/24 01:49:32;;;;;;;3.33;1.20;;;17.70;83.80;;;;;;5108355;28;20073;-65
2022/05/24 01:52:07;;;;;;;1.88;1.17;;;17.70;83.80;;;;;;5104935;28;20106;-65
2022/05/24 01:54:38;;;;;;;3.22;1.27;;;17.70;83.80;;;;;;5104148;28;20024;-66
2022/05/24 01:57:21;;;;;;;2.17;1.27;;;17.70;83.70;;;;;;5105922;28;20047;-65
2022/05/24 01:59:50;;;;;;;2.63;1.33;;;17.70;83.60;;;;;;5105257;28;20106;-65
2022/05/24 02:02:17;;;;;;;3.30;0.95;;;17.70;83.60;;;;;;5103411;28;20057;-66
2022/05/24 02:04:44;;;;;;;3.00;0.90;;;17.60;83.70;;;;;;5104918;28;20023;-67
2022/05/24 02:07:16;;;;;;;3.72;1.00;;;17.70;83.80;;;;;;5100788;28;20143;-68
2022/05/24 02:09:55;;;;;;;4.45;2.00;;;17.70;83.80;;;;;;5087756;28;20490;-65
2022/05/24 02:12:27;;;;;;;3.50;1.15;;;17.70;83.80;;;;;;5109686;28;20042;-65
2022/05/24 02:14:59;;;;;;;2.85;1.27;;;17.60;83.80;;;;;;5101148;28;20020;-68
2022/05/24 02:17:39;;;;;;;1.48;0.70;;;17.70;83.90;;;;;;5100665;28;20028;-68
2022/05/24 02:20:08;;;;;;;1.90;0.90;;;17.70;83.80;;;;;;5101556;28;20062;-67
2022/05/24 02:22:37;;;;;;;2.90;0.90;;;17.70;83.70;;;;;;5103682;28;20020;-67
2022/05/24 02:25:07;;;;;;;1.50;0.70;;;17.60;83.70;;;;;;5104691;28;20032;-67
2022/05/24 02:27:39;;;;;;;5.28;0.82;;;17.60;83.70;;;;;;5105986;28;20080;-64
2022/05/24 02:30:06;;;;;;;3.30;1.02;;;17.60;83.70;;;;;;5104395;28;20420;-67
2022/05/24 02:32:33;;;;;;;3.13;1.33;;;17.60;83.70;;;;;;5106839;28;20583;-65
2022/05/24 02:34:59;;;;;;;2.78;1.20;;;17.70;83.80;;;;;;5103335;28;20072;-65
2022/05/24 02:37:26;;;;;;;3.58;0.93;;;17.60;83.70;;;;;;5099096;28;20112;-67
2022/05/24 02:42:37;;;;;;;1.65;0.73;;;17.60;83.70;;;;;;5106714;28;20129;-67
2022/05/24 02:45:05;;;;;;;2.00;1.15;;;17.60;83.70;;;;;;5103728;28;21757;-65
2022/05/24 02:47:31;;;;;;;6.10;0.75;;;17.60;83.80;;;;;;5104479;28;20027;-67
2022/05/24 02:49:57;;;;;;;2.05;1.00;;;17.70;83.80;;;;;;5101602;28;20486;-67
2022/05/24 02:52:24;;;;;;;2.42;1.08;;;17.60;83.80;;;;;;5105590;28;20031;-68
2022/05/24 02:54:50;;;;;;;3.20;0.75;;;17.60;83.70;;;;;;5101051;28;20475;-67
2022/05/24 02:57:17;;;;;;;3.53;1.08;;;17.60;83.60;;;;;;5100704;28;20038;-68
2022/05/24 02:59:43;;;;;;;8.57;1.42;;;17.60;83.60;;;;;;5101777;28;20039;-67
2022/05/24 03:02:10;;;;;;;5.40;1.27;;;17.60;84.20;;;;;;5103069;28;20060;-68
2022/05/24 03:04:37;;;;;;;2.75;0.75;;;17.60;83.50;;;;;;5103730;28;20600;-67
2022/05/24 03:09:48;;;;;;;3.73;1.30;;;17.60;83.60;;;;;;5105797;28;20042;-64
2022/05/24 03:14:59;;;;;;;0.93;0.60;;;17.60;83.60;;;;;;5102986;28;20096;-67
2022/05/24 03:17:26;;;;;;;2.97;1.00;;;17.60;83.60;;;;;;5108462;28;20297;-68
2022/05/24 03:19:56;;;;;;;2.25;1.33;;;17.60;83.60;;;;;;5101461;28;20023;-67
2022/05/24 03:22:22;;;;;;;1.02;0.63;;;17.60;83.60;;;;;;5084630;28;20032;-67
2022/05/24 03:24:49;;;;;;;1.08;0.95;;;17.60;83.70;;;;;;5099892;28;20103;-68
2022/05/24 03:27:16;;;;;;;1.88;0.77;;;17.60;83.70;;;;;;5106835;28;20020;-66
2022/05/24 03:29:45;;;;;;;4.70;1.17;;;17.60;84.40;;;;;;5102710;28;20024;-68
2022/05/24 03:32:14;;;;;;;2.75;1.10;;;17.60;83.80;;;;;;5103419;28;20054;-67
2022/05/24 03:34:41;;;;;;;2.97;1.52;;;17.60;84.30;;;;;;5099631;28;20027;-66
2022/05/24 03:37:08;;;;;;;4.70;0.88;;;17.60;83.80;;;;;;5104394;28;20050;-68
2022/05/24 03:39:35;;;;;;;2.35;0.85;;;17.60;83.80;;;;;;5086711;28;20080;-68
2022/05/24 03:42:02;;;;;;;3.95;1.55;;;17.60;83.80;;;;;;5096849;28;20022;-69
2022/05/24 03:44:28;;;;;;;2.33;1.00;;;17.60;83.90;;;;;;5101402;28;20120;-69
2022/05/24 03:46:55;;;;;;;2.42;0.98;;;17.60;83.90;;;;;;5096712;28;20027;-69
2022/05/24 03:49:22;;;;;;;2.60;1.15;;;17.60;83.70;;;;;;5102935;28;20367;-67
2022/05/24 03:51:49;;;;;;;1.33;1.05;;;17.60;83.70;;;;;;5100757;28;20467;-69
2022/05/24 03:54:16;;;;;;;3.05;1.17;;;17.60;83.70;;;;;;5105984;28;20034;-66
2022/05/24 03:59:28;;;;;;;2.00;0.98;;;17.60;84.40;;;;;;5099272;28;20128;-69
2022/05/24 04:01:54;;;;;;;3.15;0.90;;;17.60;83.70;;;;;;5100106;28;20066;-70
2022/05/24 04:04:20;;;;;;;5.82;1.23;;;17.60;83.60;;;;;;5103572;28;20028;-69
2022/05/24 04:06:47;;;;;;;3.22;0.88;;;17.60;83.50;;;;;;5100364;28;20076;-68
2022/05/24 04:09:13;;;;;;;2.50;1.00;;;17.60;83.50;;;;;;5106047;28;20008;-67
2022/05/24 04:11:40;;;;;;;10.95;5.07;;;17.60;83.50;;;;;;5098357;28;20025;-67
2022/05/24 04:14:06;;;;;;;11.55;4.95;;;17.60;83.60;;;;;;5099328;28;20067;-68
2022/05/24 04:16:33;;;;;;;15.57;10.13;;;17.60;84.40;;;;;;5102028;28;20116;-70
2022/05/24 04:18:59;;;;;;;15.93;12.38;;;17.60;84.60;;;;;;5104625;28;20020;-67
2022/05/24 04:21:26;;;;;;;19.50;14.57;;;17.60;84.60;;;;;;5103214;28;20023;-69
2022/05/24 04:23:53;;;;;;;15.10;10.50;;;17.60;84.40;;;;;;5104290;28;20031;-68
2022/05/24 04:26:19;;;;;;;9.40;6.63;;;17.60;84.40;;;;;;5100358;28;20094;-67
2022/05/24 04:28:46;;;;;;;7.07;4.72;;;17.60;84.30;;;;;;5102650;28;20079;-67
2022/05/24 04:31:12;;;;;;;3.80;3.25;;;17.60;84.20;;;;;;5107581;28;20024;-67
2022/05/24 04:33:39;;;;;;;5.03;2.28;;;17.60;84.20;;;;;;5096982;28;20383;-71
2022/05/24 04:36:06;;;;;;;5.53;3.08;;;17.60;84.20;;;;;;5097916;28;20409;-68
2022/05/24 04:38:32;;;;;;;5.53;2.00;;;17.60;84.20;;;;;;5100388;28;20051;-70
2022/05/24 04:43:46;;;;;;;27.42;13.48;;;17.60;84.30;;;;;;5099077;28;20055;-70
2022/05/24 04:46:13;;;;;;;25.90;18.65;;;17.60;84.50;;;;;;5103761;28;20028;-67
2022/05/24 04:48:39;;;;;;;21.27;14.40;;;17.60;85.40;;;;;;5098293;28;20011;-69
2022/05/24 04:51:06;;;;;;;21.20;12.40;;;17.60;86.20;;;;;;5080587;28;20120;-71
2022/05/24 04:53:32;;;;;;;12.52;7.32;;;17.60;86.60;;;;;;5104639;28;20027;-68
2022/05/24 04:55:59;;;;;;;7.38;5.13;;;17.70;86.60;;;;;;5100515;28;20099;-67
2022/05/24 04:58:25;;;;;;;7.50;3.92;;;17.70;86.70;;;;;;5096337;28;20020;-66
2022/05/24 05:00:52;;;;;;;5.97;3.38;;;17.70;86.60;;;;;;5099231;28;20532;-69
2022/05/24 05:03:20;;;;;;;3.88;2.28;;;17.70;86.40;;;;;;5097591;28;20370;-70
2022/05/24 05:05:49;;;;;;;5.05;2.20;;;17.70;86.40;;;;;;5103425;28;20112;-70
2022/05/24 05:08:16;;;;;;;9.30;1.85;;;17.70;86.30;;;;;;5102930;28;20039;-68
2022/05/24 05:10:42;;;;;;;3.00;1.52;;;17.70;86.40;;;;;;5105964;28;20035;-68
2022/05/24 05:13:09;;;;;;;2.90;1.23;;;17.70;86.50;;;;;;5105698;28;20027;-69
2022/05/24 05:15:37;;;;;;;4.90;1.02;;;17.70;86.50;;;;;;5109056;28;20061;-65
2022/05/24 05:18:09;;;;;;;3.33;1.92;;;17.70;86.40;;;;;;5102027;28;20021;-63
2022/05/24 05:20:39;;;;;;;5.32;1.35;;;17.80;86.50;;;;;;5103151;28;20038;-69
2022/05/24 05:23:14;;;;;;;2.65;1.20;;;17.80;86.50;;;;;;5105117;28;20102;-67
2022/05/24 05:25:42;;;;;;;3.92;1.20;;;17.80;86.90;;;;;;5104176;28;20073;-66
2022/05/24 05:28:09;;;;;;;9.93;2.85;;;17.80;87.10;;;;;;5103858;28;20021;-66
2022/05/24 05:33:21;;;;;;;9.00;0.90;;;17.70;87.20;;;;;;5103784;28;20043;-70
2022/05/24 05:35:47;;;;;;;6.70;1.70;;;17.80;87.20;;;;;;5104919;28;20528;-70
2022/05/24 05:38:14;;;;;;;4.88;1.23;;;17.80;87.10;;;;;;5102418;28;20079;-70
2022/05/24 05:40:41;;;;;;;3.03;1.13;;;17.80;87.10;;;;;;5105674;28;20111;-63
2022/05/24 05:43:08;;;;;;;2.25;1.08;;;17.80;87.10;;;;;;5095397;28;20020;-64
2022/05/24 05:45:34;;;;;;;2.95;0.90;;;17.80;87.20;;;;;;5102217;28;20034;-65
2022/05/24 05:48:01;;;;;;;2.72;0.90;;;17.70;87.00;;;;;;5101831;28;20012;-64
2022/05/24 05:50:28;;;;;;;1.83;0.50;;;17.80;87.00;;;;;;5106517;28;20509;-64
2022/05/24 05:52:54;;;;;;;4.63;1.02;;;17.80;87.00;;;;;;5104251;28;20055;-65
2022/05/24 05:55:21;;;;;;;3.97;0.98;;;17.80;87.00;;;;;;5108470;28;20019;-65
2022/05/24 05:57:48;;;;;;;2.92;1.52;;;17.70;86.80;;;;;;5105564;28;20015;-64
2022/05/24 06:00:15;;;;;;;10.55;2.70;;;17.70;86.70;;;;;;5105415;28;20469;-63
2022/05/24 06:02:42;;;;;;;2.70;1.00;;;17.80;86.80;;;;;;5083945;28;20114;-64
2022/05/24 06:05:10;;;;;;;3.47;1.50;;;17.80;87.00;;;;;;5105727;28;20498;-64
2022/05/24 06:07:37;;;;;;;3.40;1.27;;;17.80;87.00;;;;;;5105505;28;20024;-65
2022/05/24 06:10:06;;;;;;;1.85;0.70;;;17.80;86.90;;;;;;5101703;28;20019;-64
2022/05/24 06:12:33;;;;;;;1.95;1.10;;;17.80;86.90;;;;;;5103143;28;20043;-64
2022/05/24 06:14:59;;;;;;;8.65;1.13;;;17.80;86.80;;;;;;5101273;28;20024;-64
2022/05/24 06:17:26;;;;;;;3.92;1.10;;;17.80;87.10;;;;;;5103119;28;20490;-65
2022/05/24 06:19:53;;;;;;;4.72;1.13;;;17.90;87.10;;;;;;5101981;28;20024;-66
2022/05/24 06:22:20;;;;;;;4.80;1.23;;;17.80;87.00;;;;;;5101993;28;20106;-68
2022/05/24 06:24:46;;;;;;;2.75;0.70;;;17.90;86.90;;;;;;5100960;28;20050;-64
2022/05/24 06:27:13;;;;;;;3.55;1.10;;;17.90;86.80;;;;;;5104089;28;20024;-66
2022/05/24 06:29:40;;;;;;;2.50;0.70;;;17.90;86.70;;;;;;5108174;28;20482;-66
2022/05/24 06:32:08;;;;;;;3.03;0.60;;;17.90;86.60;;;;;;5104347;28;20036;-65
2022/05/24 06:34:34;;;;;;;7.80;1.27;;;17.90;86.50;;;;;;5100416;28;20109;-65
2022/05/24 06:37:01;;;;;;;3.80;1.40;;;17.90;86.40;;;;;;5105775;28;20024;-66
2022/05/24 06:39:27;;;;;;;4.10;1.13;;;17.90;86.60;;;;;;5104181;28;20015;-65
2022/05/24 06:41:54;;;;;;;4.03;0.77;;;18.00;86.70;;;;;;5104752;28;20058;-64
2022/05/24 06:44:20;;;;;;;3.10;0.75;;;18.00;86.80;;;;;;5101662;28;20051;-65
2022/05/24 06:46:47;;;;;;;2.80;0.93;;;17.90;86.80;;;;;;5104330;28;20814;-65
2022/05/24 06:49:13;;;;;;;2.50;0.90;;;17.90;86.80;;;;;;5103150;28;20027;-65
2022/05/24 06:51:39;;;;;;;5.55;0.82;;;17.90;86.80;;;;;;5101256;28;20034;-66
2022/05/24 06:54:06;;;;;;;1.85;0.65;;;17.90;86.70;;;;;;5104995;28;20387;-65
2022/05/24 06:56:33;;;;;;;3.00;1.20;;;18.00;86.60;;;;;;5103563;28;20054;-64
2022/05/24 07:04:29;;;;;;;5.60;1.07;;;18.00;86.60;;;;;;5101983;28;20112;-68
2022/05/24 07:06:56;;;;;;;6.82;1.17;;;18.00;86.70;;;;;;5105504;28;20030;-66
2022/05/24 07:09:28;;;;;;;5.50;1.55;;;18.00;86.60;;;;;;5103214;28;20056;-65
2022/05/24 07:11:55;;;;;;;2.10;0.55;;;18.00;86.50;;;;;;5102819;28;20066;-70
2022/05/24 07:14:21;;;;;;;3.13;0.80;;;18.00;86.40;;;;;;5083676;28;20128;-65
2022/05/24 07:16:48;;;;;;;9.73;1.33;;;18.00;86.70;;;;;;5097498;28;20024;-68
2022/05/24 07:19:14;;;;;;;10.68;1.25;;;18.00;86.60;;;;;;5101217;28;20024;-65
2022/05/24 07:21:41;;;;;;;7.60;1.10;;;18.00;86.70;;;;;;5102276;28;20020;-66
2022/05/24 07:24:07;;;;;;;4.03;1.00;;;18.10;86.80;;;;;;5105394;28;20414;-65
2022/05/24 07:26:34;;;;;;;8.98;1.50;;;18.00;86.60;;;;;;5083935;28;20039;-65
2022/05/24 07:29:00;;;;;;;3.33;1.42;;;18.00;86.50;;;;;;5099163;28;20020;-67
2022/05/24 07:31:27;;;;;;;3.45;1.00;;;18.00;86.40;;;;;;5096045;28;20668;-65
2022/05/24 07:33:53;;;;;;;8.68;1.05;;;18.10;86.30;;;;;;5100716;28;20367;-65
2022/05/24 07:36:19;;;;;;;4.63;0.85;;;18.10;87.00;;;;;;5104911;28;20450;-70
2022/05/24 07:38:46;;;;;;;3.30;0.90;;;18.10;86.50;;;;;;5103541;28;20052;-67
2022/05/24 07:46:43;;;;;;;3.45;1.05;;;18.20;86.30;;;;;;5104810;28;20546;-64
2022/05/24 07:49:10;;;;;;;5.20;1.25;;;18.20;86.00;;;;;;5102997;28;20022;-66
2022/05/24 07:51:36;;;;;;;8.25;1.30;;;18.20;86.00;;;;;;5101567;28;20040;-66
2022/05/24 07:54:03;;;;;;;5.32;1.35;;;18.20;86.30;;;;;;5103880;28;20135;-69
2022/05/24 07:56:29;;;;;;;7.55;1.83;;;18.20;86.60;;;;;;5103622;28;20458;-65
2022/05/24 07:58:56;;;;;;;7.25;1.52;;;18.30;86.60;;;;;;5099658;28;20073;-70
2022/05/24 08:01:23;;;;;;;3.50;0.95;;;18.30;86.60;;;;;;5084590;28;20080;-67
2022/05/24 08:03:50;;;;;;;4.00;1.20;;;18.30;86.70;;;;;;5102972;28;20209;-65
2022/05/24 08:06:17;;;;;;;4.85;1.60;;;18.30;86.80;;;;;;5096166;28;20099;-65
2022/05/24 08:08:44;;;;;;;3.83;1.10;;;18.30;86.70;;;;;;5103113;28;20024;-66
2022/05/24 08:11:11;;;;;;;2.45;0.95;;;18.30;86.60;;;;;;5100821;28;20031;-65
2022/05/24 08:13:38;;;;;;;7.28;1.20;;;18.30;86.50;;;;;;5101689;28;20061;-66
2022/05/24 08:16:05;;;;;;;6.28;1.67;;;18.30;86.60;;;;;;5103552;28;20028;-65
2022/05/24 08:18:31;;;;;;;3.67;0.82;;;18.30;86.80;;;;;;5101118;28;20035;-65
2022/05/24 08:20:58;;;;;;;2.88;0.68;;;18.30;86.90;;;;;;5100898;28;20015;-71
2022/05/24 08:23:27;;;;;;;2.30;1.00;;;18.30;87.60;;;;;;5099997;28;20103;-66
2022/05/24 08:25:54;;;;;;;3.35;0.90;;;18.30;87.10;;;;;;5103593;28;20076;-65
2022/05/24 08:28:21;;;;;;;6.32;0.70;;;18.30;87.10;;;;;;5105879;28;20462;-70
2022/05/24 08:30:47;;;;;;;2.63;0.90;;;18.30;87.10;;;;;;5101293;28;20039;-64
2022/05/24 08:33:15;;;;;;;7.45;1.00;;;18.40;87.10;;;;;;5098552;28;20024;-64
2022/05/24 08:35:43;;;;;;;2.40;0.75;;;18.40;87.10;;;;;;5103136;28;20019;-70
2022/05/24 08:38:12;;;;;;;3.22;1.08;;;18.40;87.10;;;;;;5105110;28;20028;-64
2022/05/24 08:40:42;;;;;;;3.38;0.98;;;18.40;87.00;;;;;;5100052;28;20625;-66
2022/05/24 08:43:29;;;;;;;2.60;1.25;;;18.40;86.90;;;;;;5100975;28;20023;-64
2022/05/24 08:48:52;;;;;;;2.85;1.25;;;18.50;86.90;;;;;;5099358;28;20088;-64
2022/05/24 08:51:30;;;;;;;2.35;0.90;;;18.50;86.70;;;;;;5105029;28;20036;-65
2022/05/24 08:54:09;;;;;;;11.45;1.40;;;18.50;86.50;;;;;;5105854;28;20022;-64
2022/05/24 08:56:43;;;;;;;7.47;1.00;;;18.50;86.30;;;;;;5108169;28;20030;-66
2022/05/24 08:59:15;;;;;;;6.55;1.30;;;18.50;86.30;;;;;;5102765;28;20020;-68
2022/05/24 09:01:44;;;;;;;2.53;1.00;;;18.50;86.20;;;;;;5106885;28;20016;-66
2022/05/24 09:04:11;;;;;;;4.15;1.15;;;18.60;86.30;;;;;;5101710;28;20904;-67
2022/05/24 09:06:38;;;;;;;12.73;1.92;;;18.60;86.30;;;;;;5103546;28;20020;-66
2022/05/24 09:09:13;;;;;;;3.30;0.90;;;18.60;86.20;;;;;;5107395;28;20515;-64
2022/05/24 09:11:54;;;;;;;7.93;1.10;;;18.60;86.20;;;;;;5102634;28;20034;-67
2022/05/24 09:14:43;;;;;;;8.32;0.95;;;18.60;86.10;;;;;;5105098;28;20020;-68
2022/05/24 09:17:16;;;;;;;2.83;0.95;;;18.60;86.00;;;;;;5109683;28;20465;-64
2022/05/24 09:19:45;;;;;;;1.60;0.98;;;18.70;85.80;;;;;;5099614;28;20131;-63
2022/05/24 09:22:12;;;;;;;4.47;1.00;;;18.70;85.70;;;;;;5106584;28;20016;-65
2022/05/24 09:24:48;;;;;;;4.85;1.00;;;18.70;85.60;;;;;;5107686;28;20035;-65
2022/05/24 09:27:21;;;;;;;1.88;0.57;;;18.80;85.50;;;;;;5106297;28;20023;-64
2022/05/24 09:30:06;;;;;;;6.03;0.90;;;18.80;85.40;;;;;;5105325;28;20592;-65
2022/05/24 09:32:39;;;;;;;9.45;2.38;;;18.80;85.30;;;;;;5103225;28;20036;-67
2022/05/24 09:35:09;;;;;;;5.68;0.90;;;18.80;85.30;;;;;;5107647;28;20183;-68
2022/05/24 09:37:36;;;;;;;4.43;1.42;;;18.80;85.40;;;;;;5102632;28;20034;-68
2022/05/24 09:40:16;;;;;;;3.53;0.82;;;18.90;85.50;;;;;;5105848;28;20039;-67
2022/05/24 09:42:43;;;;;;;3.00;0.77;;;18.80;85.30;;;;;;5106594;28;20030;-70
2022/05/24 09:45:15;;;;;;;6.45;2.85;;;18.90;85.20;;;;;;5105246;28;20042;-70
2022/05/24 09:47:42;;;;;;;8.80;1.13;;;18.90;84.90;;;;;;5105723;28;20478;-69
2022/05/24 09:50:37;;;;;;;1.50;0.88;;;18.90;84.90;;;;;;5104091;28;20076;-70
2022/05/24 09:53:09;;;;;;;3.85;0.82;;;18.90;84.80;;;;;;5108573;28;20470;-69
2022/05/24 09:55:42;;;;;;;8.23;1.00;;;18.90;84.80;;;;;;5104658;28;20047;-69
2022/05/24 09:58:38;;;;;;;5.50;0.80;;;18.90;84.80;;;;;;5103465;28;20016;-70
2022/05/24 10:01:12;;;;;;;6.22;1.55;;;18.90;84.80;;;;;;5103973;28;20497;-67
2022/05/24 10:03:44;;;;;;;7.90;1.48;;;18.90;84.80;;;;;;5100193;28;20030;-69
2022/05/24 10:06:20;;;;;;;6.72;1.63;;;18.90;84.80;;;;;;5103886;28;20027;-68
2022/05/24 10:08:51;;;;;;;4.20;0.70;;;19.00;84.90;;;;;;5107135;28;20493;-70
2022/05/24 10:11:36;;;;;;;9.32;1.20;;;19.00;84.90;;;;;;5105084;28;20723;-69
2022/05/24 10:14:35;;;;;;;4.57;0.60;;;19.00;84.80;;;;;;5108555;28;20019;-69
2022/05/24 10:17:07;;;;;;;1.98;0.80;;;19.00;84.50;;;;;;5106242;28;20027;-69
2022/05/24 10:20:08;;;;;;;4.50;0.80;;;19.00;84.20;;;;;;5097481;28;20016;-65
2022/05/24 10:22:56;;;;;;;3.60;0.90;;;18.90;84.00;;;;;;5105324;28;20035;-64
2022/05/24 10:25:35;;;;;;;6.95;1.50;;;19.00;83.90;;;;;;5103067;28;20028;-64
2022/05/24 10:28:37;;;;;;;5.13;0.93;;;18.90;83.60;;;;;;5104539;28;20537;-67
2022/05/24 10:31:33;;;;;;;4.53;1.15;;;18.90;83.50;;;;;;5077154;28;20048;-64
2022/05/24 10:38:17;;;;;;;4.13;1.02;;;18.90;83.30;;;;;;5097557;28;20077;-69
2022/05/24 10:40:19;;;;;;;1.67;0.93;;;18.90;83.20;;;;;;5107850;28;20023;-65
2022/05/24 10:43:22;;;;;;;7.30;1.00;;;18.80;83.20;;;;;;5103463;28;20454;-66
2022/05/24 10:46:01;;;;;;;5.18;0.70;;;18.90;83.30;;;;;;5105166;28;20107;-65
2022/05/24 10:49:03;;;;;;;3.30;1.02;;;18.90;83.50;;;;;;5105223;28;20504;-65
2022/05/24 10:51:48;;;;;;;14.52;1.20;;;18.80;83.50;;;;;;5107854;28;20097;-66
2022/05/24 10:54:32;;;;;;;5.38;1.27;;;18.90;83.60;;;;;;5102538;28;20018;-64
2022/05/24 10:57:15;;;;;;;6.37;1.20;;;18.90;83.90;;;;;;5099370;28;20030;-65
2022/05/24 11:00:04;;;;;;;7.63;1.45;;;18.80;83.90;;;;;;5100206;28;20028;-66
2022/05/24 11:02:53;;;;;;;3.97;0.98;;;18.80;84.00;;;;;;5099247;28;20020;-69
2022/05/24 11:05:33;;;;;;;3.47;0.88;;;18.80;84.20;;;;;;5095789;28;20031;-65
2022/05/24 11:08:25;;;;;;;3.63;1.48;;;18.80;84.20;;;;;;5104305;28;20032;-66
2022/05/24 11:10:51;;;;;;;3.28;1.17;;;18.80;84.20;;;;;;5098916;28;20387;-66
2022/05/24 11:13:22;;;;;;;4.20;1.55;;;18.80;84.10;;;;;;5101481;28;20031;-65
2022/05/24 11:16:03;;;;;;;7.57;2.03;;;18.80;84.20;;;;;;5106162;28;20027;-66
2022/05/24 11:18:30;;;;;;;5.18;1.33;;;18.80;84.40;;;;;;5104105;28;20038;-66
2022/05/24 11:21:08;;;;;;;4.15;1.35;;;18.80;84.50;;;;;;5082859;28;20019;-70
2022/05/24 11:23:45;;;;;;;4.13;1.02;;;18.80;84.60;;;;;;5082788;28;20019;-65
2022/05/24 11:26:27;;;;;;;10.70;1.92;;;18.80;84.90;;;;;;5103685;28;20057;-69
2022/05/24 11:29:10;;;;;;;2.72;1.00;;;18.80;84.90;;;;;;5100051;28;20509;-68
2022/05/24 11:31:49;;;;;;;5.18;1.73;;;18.80;84.90;;;;;;5102500;28;20034;-66
2022/05/24 11:34:32;;;;;;;4.32;1.15;;;18.80;84.90;;;;;;5101886;28;20019;-68
2022/05/24 11:37:14;;;;;;;4.00;1.00;;;18.80;84.80;;;;;;5101862;28;20051;-67
2022/05/24 11:39:44;;;;;;;4.10;1.17;;;18.80;84.90;;;;;;5102638;28;20054;-66
2022/05/24 11:42:23;;;;;;;2.15;1.20;;;18.80;85.10;;;;;;5104714;28;20000;-66
2022/05/24 11:44:51;;;;;;;15.70;1.90;;;18.80;85.10;;;;;;5104860;28;20122;-66
2022/05/24 11:47:39;;;;;;;3.33;1.45;;;18.80;85.30;;;;;;5098164;28;20016;-65
2022/05/24 11:50:29;;;;;;;5.55;1.30;;;18.80;85.30;;;;;;5103256;28;20015;-68
2022/05/24 11:53:05;;;;;;;4.97;1.50;;;18.80;85.50;;;;;;5106112;28;20023;-68
2022/05/24 11:55:53;;;;;;;4.90;1.20;;;18.80;85.70;;;;;;5101720;28;20501;-68
2022/05/24 11:58:23;;;;;;;3.53;1.40;;;18.90;85.70;;;;;;5098414;28;20047;-70
2022/05/24 12:00:58;;;;;;;4.70;1.05;;;18.90;85.50;;;;;;5097575;28;20022;-67
2022/05/24 12:09:23;;;;;;;7.15;1.48;;;18.90;84.80;;;;;;5098866;28;20073;-64
2022/05/24 12:12:33;;;;;;;3.67;0.90;;;18.80;84.80;;;;;;5106400;28;20466;-70
2022/05/24 12:15:34;;;;;;;4.53;2.65;;;18.80;84.80;;;;;;5074484;28;20118;-68
2022/05/24 12:18:01;;;;;;;4.03;1.20;;;18.80;84.90;;;;;;5077021;28;20027;-69
2022/05/24 12:20:29;;;;;;;5.25;0.95;;;18.90;85.30;;;;;;5085805;28;20018;-68
2022/05/24 12:23:13;;;;;;;6.38;2.03;;;18.80;85.70;;;;;;5102443;28;20058;-66
2022/05/24 12:26:03;;;;;;;3.72;1.42;;;18.80;86.30;;;;;;5103132;28;20499;-66
2022/05/24 12:28:38;;;;;;;7.45;1.65;;;18.80;87.10;;;;;;5098259;28;20024;-67
2022/05/24 12:31:08;;;;;;;8.32;1.42;;;18.80;87.70;;;;;;5085316;28;20562;-66
2022/05/24 12:33:41;;;;;;;1.40;1.00;;;18.80;88.20;;;;;;5101204;28;20478;-68
2022/05/24 12:36:23;;;;;;;6.82;1.50;;;18.80;88.50;;;;;;5103568;28;20024;-68
2022/05/24 12:39:32;;;;;;;5.50;1.83;;;18.70;88.90;;;;;;5099516;28;20074;-67
2022/05/24 12:42:38;;;;;;;7.10;3.60;;;18.70;89.30;;;;;;5086542;28;20063;-67
2022/05/24 12:45:56;;;;;;;11.82;2.88;;;18.70;89.70;;;;;;5103552;28;20075;-66
2022/05/24 12:48:26;;;;;;;4.53;1.65;;;18.70;89.90;;;;;;5097061;28;20116;-65
2022/05/24 12:51:32;;;;;;;5.28;2.17;;;18.70;90.00;;;;;;5102065;28;20114;-66
2022/05/24 12:54:38;;;;;;;5.90;1.90;;;18.70;90.00;;;;;;5096107;28;20062;-68
2022/05/24 12:57:47;;;;;;;11.90;2.03;;;18.70;90.10;;;;;;5098439;28;20028;-68
2022/05/24 13:00:53;;;;;;;5.57;1.73;;;18.60;90.10;;;;;;5098786;28;20023;-65
2022/05/24 13:04:11;;;;;;;5.35;1.65;;;18.60;90.20;;;;;;5104894;28;20020;-65
2022/05/24 13:07:17;;;;;;;4.57;2.38;;;18.60;90.30;;;;;;5099300;28;20059;-65
2022/05/24 13:10:26;;;;;;;6.20;1.83;;;18.60;90.40;;;;;;5098345;28;20023;-66
2022/05/24 13:13:32;;;;;;;6.03;1.52;;;18.60;90.50;;;;;;5096477;28;20036;-67
2022/05/24 13:16:38;;;;;;;6.65;2.67;;;18.60;90.80;;;;;;5104564;28;20027;-66
2022/05/24 13:19:44;;;;;;;9.30;1.90;;;18.60;90.70;;;;;;5102073;28;20027;-65
2022/05/24 13:22:42;;;;;;;4.93;2.00;;;18.60;90.80;;;;;;5104385;28;20028;-65
2022/05/24 13:26:03;;;;;;;7.90;2.67;;;18.60;91.00;;;;;;5104639;28;20024;-65
2022/05/24 13:35:09;;;;;;;4.40;2.25;;;18.60;91.20;;;;;;5099784;28;20116;-66
2022/05/24 13:37:57;;;;;;;8.05;2.05;;;18.60;91.20;;;;;;5107178;28;20118;-67
2022/05/24 13:40:39;;;;;;;9.20;2.10;;;18.50;91.10;;;;;;5103027;28;20023;-64
2022/05/24 13:43:07;;;;;;;6.45;2.95;;;18.50;91.10;;;;;;5105442;28;20012;-65
2022/05/24 13:45:36;;;;;;;9.07;2.38;;;18.50;91.00;;;;;;5108191;28;20028;-65
2022/05/24 13:48:23;;;;;;;12.85;3.13;;;18.50;91.00;;;;;;5105860;28;20008;-65
2022/05/24 13:50:50;;;;;;;11.98;2.88;;;18.50;91.00;;;;;;5102341;28;20082;-65
2022/05/24 13:53:39;;;;;;;5.22;2.78;;;18.50;91.00;;;;;;5105418;28;20022;-65
2022/05/24 13:56:45;;;;;;;8.05;2.47;;;18.50;90.90;;;;;;5105403;28;20489;-65
2022/05/24 13:59:23;;;;;;;3.33;1.30;;;18.50;90.90;;;;;;5102962;28;20097;-67
2022/05/24 14:01:57;;;;;;;5.28;1.95;;;18.40;90.80;;;;;;5103098;28;20387;-66
2022/05/24 14:04:28;;;;;;;5.97;1.63;;;18.50;90.80;;;;;;5108680;28;20043;-67
2022/05/24 14:06:57;;;;;;;6.25;2.38;;;18.40;90.80;;;;;;5102190;28;20031;-67